Dal'Nerechensk, Russia
Current Conditions -  °F | °C
As of 8:30 PM on Sunday 21 Dec 2014 (Local Time) from UHHH Reporting Station
Clear Clear  
Wind Chill: -39°   Ceiling: Unl
Heat Index: -22°   Visibility: 6mi
Dew Point: -29°   Wind: 7mph
Humidity: 69%   Direction: 150°SSE
Pressure: 29.71"   Gusts: NA
Location:  45.87°N, 133.73°E
Report Text: UHHH 211030Z 15003MPS CAVOK M30/M34 Q1006 NOSIG RMK QFE748/09972385//45
Loading
Personal Weather Stations






























Interactive Weather Map New forecast layout! Learn more

10-Day Weather Forecast

Advertisements
Track Severe Weather on mobile